Terminal Aerodrome Forecast
Issued by NWS

Home | Current Version | Previous Version | Graphics & Text | Print | Product List | Glossary On
Versions: 1 2 3 4 5 6 7 8 9 10 11 12 13 14 15 16 17 18 19
368
FTUS43 KGRB 042330
TAFATW
TAF
KATW 042330Z 0500/0524 21005KT P6SM BKN040
      TEMPO 0504/0507 -SHSN BKN025
     FM050700 26005KT P6SM SCT025 BKN035
     FM051100 29007KT P6SM SCT035 BKN250=

USA.gov is the U.S. government's official web portal to all federal, state and local government web resources and services.